createdAt,value
2018-02-03T00:01:01.380Z,10.53
2018-02-03T00:03:31.746Z,10.54
2018-02-03T00:05:59.381Z,10.62
2018-02-03T00:08:26.938Z,10.65
2018-02-03T00:10:54.503Z,10.64
2018-02-03T00:13:22.994Z,10.55
2018-02-03T00:15:51.302Z,10.51
2018-02-03T00:18:18.851Z,10.40
2018-02-03T00:20:47.313Z,10.35
2018-02-03T00:23:15.986Z,10.28
2018-02-03T00:25:49.268Z,10.26
2018-02-03T00:28:23.698Z,10.24
2018-02-03T00:31:06.163Z,10.21
2018-02-03T00:33:36.901Z,10.14
2018-02-03T00:36:05.346Z,10.18
2018-02-03T00:38:34.036Z,10.13
2018-02-03T00:41:05.550Z,10.11
2018-02-03T00:43:47.993Z,10.22
2018-02-03T00:46:19.362Z,10.30
2018-02-03T00:48:46.967Z,10.33
2018-02-03T00:51:17.730Z,10.29
2018-02-03T00:53:53.329Z,10.22
2018-02-03T00:56:22.630Z,10.24
2018-02-03T00:58:53.218Z,10.29
2018-02-03T01:01:24.629Z,10.28
2018-02-03T01:04:07.128Z,10.30
2018-02-03T01:06:35.099Z,10.09
2018-02-03T01:09:02.930Z,10.04
2018-02-03T01:11:31.294Z,9.84
2018-02-03T01:14:01.910Z,9.75
2018-02-03T01:16:32.649Z,9.65
2018-02-03T01:19:18.893Z,9.60
2018-02-03T01:22:03.980Z,9.47
2018-02-03T01:24:32.737Z,9.48
2018-02-03T01:27:15.225Z,9.41
2018-02-03T01:29:46.377Z,9.37
2018-02-03T01:32:17.306Z,9.30
2018-02-03T01:34:47.810Z,9.26
2018-02-03T01:37:23.104Z,9.27
2018-02-03T01:40:04.054Z,9.23
2018-02-03T01:42:32.542Z,9.20
2018-02-03T01:45:00.246Z,9.23
2018-02-03T01:47:39.802Z,9.25
2018-02-03T01:50:21.267Z,9.31
2018-02-03T01:52:48.877Z,9.34
2018-02-03T01:55:16.459Z,9.28
2018-02-03T01:57:44.035Z,9.25
2018-02-03T02:00:12.939Z,9.29
2018-02-03T02:02:43.779Z,9.30
2018-02-03T02:05:11.646Z,9.31
2018-02-03T02:07:42.209Z,9.33
2018-02-03T02:10:09.825Z,9.27
2018-02-03T02:12:40.472Z,9.25
2018-02-03T02:15:11.662Z,9.41
2018-02-03T02:17:56.362Z,9.46
2018-02-03T02:20:23.926Z,9.52
2018-02-03T02:22:58.858Z,9.60
2018-02-03T02:25:26.797Z,9.68
2018-02-03T02:27:58.358Z,9.92
2018-02-03T02:30:25.962Z,9.95
2018-02-03T02:33:00.341Z,9.99
2018-02-03T02:35:27.953Z,9.94
2018-02-03T02:37:58.550Z,9.96
2018-02-03T02:40:35.802Z,9.94
2018-02-03T02:43:09.084Z,10.09
2018-02-03T02:45:46.827Z,10.12
2018-02-03T02:48:21.765Z,10.15
2018-02-03T02:50:50.186Z,10.09
2018-02-03T02:53:17.770Z,10.12
2018-02-03T02:56:00.381Z,10.12
2018-02-03T02:58:28.901Z,10.19
2018-02-03T03:00:56.762Z,10.22
2018-02-03T03:03:27.417Z,10.25
2018-02-03T03:06:01.880Z,10.21
2018-02-03T03:08:29.894Z,10.16
2018-02-03T03:10:57.748Z,10.15
2018-02-03T03:13:29.188Z,10.19
2018-02-03T03:15:57.887Z,10.20
2018-02-03T03:18:28.835Z,10.19
2018-02-03T03:20:57.434Z,10.24
2018-02-03T03:23:25.641Z,10.23
2018-02-03T03:25:53.959Z,10.23
2018-02-03T03:28:31.827Z,10.21
2018-02-03T03:31:01.112Z,10.26
2018-02-03T03:33:36.004Z,10.82
2018-02-03T03:36:03.914Z,11.34
2018-02-03T03:38:32.558Z,11.85
2018-02-03T03:41:00.113Z,12.68
2018-02-03T03:43:38.630Z,13.04
2018-02-03T03:46:07.057Z,13.42
2018-02-03T03:48:47.978Z,13.52
2018-02-03T03:51:19.329Z,13.68
2018-02-03T03:53:54.200Z,13.88
2018-02-03T03:56:21.886Z,14.14
2018-02-03T03:59:03.416Z,14.17
2018-02-03T04:01:31.764Z,14.14
2018-02-03T04:04:06.385Z,14.21
2018-02-03T04:06:34.899Z,14.29
2018-02-03T04:09:05.427Z,14.46
2018-02-03T04:11:33.851Z,14.54
2018-02-03T04:14:01.754Z,14.58
2018-02-03T04:16:32.447Z,14.63
2018-02-03T04:19:01.078Z,14.63
2018-02-03T04:21:32.018Z,14.68
2018-02-03T04:23:59.682Z,14.64
2018-02-03T04:26:27.394Z,14.66
2018-02-03T04:28:55.036Z,14.73
2018-02-03T04:31:22.687Z,14.72
2018-02-03T04:33:50.317Z,14.79
2018-02-03T04:36:18.130Z,14.79
2018-02-03T04:38:45.804Z,14.82
2018-02-03T04:41:13.574Z,14.78
2018-02-03T04:43:41.329Z,14.83
2018-02-03T04:46:09.786Z,14.86
2018-02-03T04:48:37.874Z,14.95
2018-02-03T04:51:05.594Z,15.01
2018-02-03T04:53:33.306Z,15.06
2018-02-03T04:56:00.971Z,15.15
2018-02-03T04:58:28.555Z,15.19
2018-02-03T05:00:59.039Z,15.18
2018-02-03T05:03:27.185Z,15.20
2018-02-03T05:05:54.777Z,15.23
2018-02-03T05:08:23.220Z,15.36
2018-02-03T05:10:51.811Z,15.39
2018-02-03T05:16:17.758Z,15.39
2018-02-03T05:18:45.375Z,15.40
2018-02-03T05:21:13.079Z,15.42
2018-02-03T05:23:40.725Z,15.41
2018-02-03T05:26:08.422Z,15.41
2018-02-03T05:28:36.160Z,15.39
2018-02-03T05:31:03.760Z,15.33
2018-02-03T05:33:31.341Z,15.30
2018-02-03T05:35:59.003Z,15.36
2018-02-03T05:38:27.510Z,15.33
2018-02-03T05:40:55.106Z,15.31
2018-02-03T05:43:23.429Z,15.29
2018-02-03T05:45:51.845Z,15.23
2018-02-03T05:48:19.734Z,15.29
2018-02-03T05:50:47.531Z,15.26
2018-02-03T05:53:15.145Z,15.23
2018-02-03T05:55:43.582Z,15.29
2018-02-03T05:58:11.758Z,15.26
2018-02-03T06:00:39.672Z,15.25
2018-02-03T06:03:07.239Z,15.33
2018-02-03T06:05:34.917Z,15.40
2018-02-03T06:08:02.490Z,15.40
2018-02-03T06:10:30.161Z,15.41
2018-02-03T06:12:57.830Z,15.54
2018-02-03T06:15:25.399Z,15.50
2018-02-03T06:17:52.958Z,15.60
2018-02-03T06:20:20.631Z,15.52
2018-02-03T06:22:48.181Z,15.43
2018-02-03T06:25:15.757Z,15.51
2018-02-03T06:27:43.446Z,15.67
2018-02-03T06:30:11.551Z,15.71
2018-02-03T06:32:39.191Z,15.75
2018-02-03T06:35:06.829Z,15.78
2018-02-03T06:37:34.443Z,15.76
2018-02-03T06:40:02.104Z,15.74
2018-02-03T06:42:30.046Z,15.82
2018-02-03T06:44:58.609Z,15.87
2018-02-03T06:47:27.061Z,15.89
2018-02-03T06:49:54.819Z,15.85
2018-02-03T06:52:22.392Z,15.83
2018-02-03T06:54:50.017Z,15.92
2018-02-03T06:57:18.972Z,15.90
2018-02-03T06:59:46.661Z,15.80
2018-02-03T07:02:14.421Z,15.72
2018-02-03T07:04:43.974Z,15.70
2018-02-03T07:07:11.702Z,15.65
2018-02-03T07:09:39.302Z,15.75
2018-02-03T07:12:07.046Z,15.70
2018-02-03T07:14:34.854Z,15.71
2018-02-03T07:17:02.464Z,15.71
2018-02-03T07:19:30.140Z,15.70
2018-02-03T07:21:57.923Z,15.73
2018-02-03T07:24:25.759Z,15.72
2018-02-03T07:26:53.473Z,15.78
2018-02-03T07:29:21.200Z,15.75
2018-02-03T07:31:48.883Z,15.67
2018-02-03T07:34:18.071Z,15.72
2018-02-03T07:36:45.955Z,15.74
2018-02-03T07:39:13.605Z,15.79
2018-02-03T07:41:41.491Z,15.85
2018-02-03T07:44:09.335Z,15.87
2018-02-03T07:46:36.899Z,15.86
2018-02-03T07:49:04.468Z,15.84
2018-02-03T07:51:32.731Z,15.78
2018-02-03T07:54:00.378Z,15.65
2018-02-03T07:56:27.941Z,15.48
2018-02-03T07:58:55.604Z,15.23
2018-02-03T08:01:23.163Z,14.84
2018-02-03T08:03:50.786Z,14.62
2018-02-03T08:06:18.367Z,14.45
2018-02-03T08:08:45.930Z,14.48
2018-02-03T08:11:13.509Z,14.52
2018-02-03T08:13:41.841Z,14.64
2018-02-03T08:16:09.747Z,14.77
2018-02-03T08:18:37.433Z,14.86
2018-02-03T08:21:04.998Z,14.95
2018-02-03T08:23:32.810Z,15.05
2018-02-03T08:26:00.377Z,15.14
2018-02-03T08:28:28.858Z,15.28
2018-02-03T08:30:57.248Z,15.38
2018-02-03T08:33:24.872Z,15.43
2018-02-03T08:35:52.572Z,15.41
2018-02-03T08:38:20.121Z,15.50
2018-02-03T08:40:47.687Z,15.49
2018-02-03T08:43:15.386Z,15.57
2018-02-03T08:45:42.978Z,15.58
2018-02-03T08:48:10.542Z,15.62
2018-02-03T08:50:38.243Z,15.74
2018-02-03T08:53:05.878Z,15.79
2018-02-03T08:55:33.626Z,15.85
2018-02-03T08:58:01.219Z,15.83
2018-02-03T09:00:28.818Z,15.89
2018-02-03T09:02:56.409Z,15.93
2018-02-03T09:05:24.067Z,15.99
2018-02-03T09:07:51.724Z,16.03
2018-02-03T09:10:19.494Z,16.02
2018-02-03T09:12:47.154Z,15.99
2018-02-03T09:15:14.735Z,16.04
2018-02-03T09:17:42.367Z,16.00
2018-02-03T09:20:10.123Z,16.04
2018-02-03T09:22:37.958Z,16.12
2018-02-03T09:25:05.663Z,16.11
2018-02-03T09:27:33.235Z,16.19
2018-02-03T09:30:00.824Z,16.21
2018-02-03T09:32:28.482Z,16.20
2018-02-03T09:34:56.083Z,16.19
2018-02-03T09:37:23.742Z,16.23
2018-02-03T09:39:51.321Z,16.20
2018-02-03T09:42:19.382Z,16.15
2018-02-03T09:44:46.942Z,16.20
2018-02-03T09:47:14.581Z,16.22
2018-02-03T09:49:42.162Z,16.26
2018-02-03T09:52:09.722Z,16.34
2018-02-03T09:54:37.304Z,16.26
2018-02-03T09:57:04.905Z,16.27
2018-02-03T09:59:32.613Z,16.22
2018-02-03T10:02:00.274Z,16.23
2018-02-03T10:04:27.894Z,16.27
2018-02-03T10:06:55.574Z,16.34
2018-02-03T10:09:24.041Z,16.39
2018-02-03T10:11:51.630Z,16.37
2018-02-03T10:14:19.200Z,16.37
2018-02-03T10:16:46.888Z,16.41
2018-02-03T10:19:15.646Z,16.44
2018-02-03T10:21:43.270Z,16.44
2018-02-03T10:24:10.834Z,16.48
2018-02-03T10:26:38.619Z,16.49
2018-02-03T10:29:06.263Z,16.52
2018-02-03T10:31:33.882Z,16.52
2018-02-03T10:34:01.542Z,16.50
2018-02-03T10:36:29.107Z,16.47
2018-02-03T10:38:56.674Z,16.52
2018-02-03T10:41:24.247Z,16.51
2018-02-03T10:43:51.978Z,16.53
2018-02-03T10:46:19.635Z,16.60
2018-02-03T10:48:47.277Z,16.69
2018-02-03T10:51:14.940Z,16.74
2018-02-03T10:53:42.506Z,16.83
2018-02-03T10:56:10.071Z,16.81
2018-02-03T10:58:37.666Z,16.83
2018-02-03T11:01:09.803Z,16.90
2018-02-03T11:03:37.380Z,16.91
2018-02-03T11:06:05.110Z,16.92
2018-02-03T11:08:32.806Z,16.88
2018-02-03T11:11:00.371Z,16.95
2018-02-03T11:13:27.994Z,16.97
2018-02-03T11:15:56.335Z,17.03
2018-02-03T11:18:24.094Z,17.13
2018-02-03T11:20:51.670Z,17.14
2018-02-03T11:23:19.286Z,17.19
2018-02-03T11:25:46.975Z,17.17
2018-02-03T11:28:14.535Z,17.27
2018-02-03T11:30:42.291Z,17.38
2018-02-03T11:33:10.309Z,17.62
2018-02-03T11:35:37.886Z,17.74
2018-02-03T11:38:05.563Z,17.77
2018-02-03T11:40:33.287Z,17.88
2018-02-03T11:43:01.064Z,17.85
2018-02-03T11:45:29.180Z,17.98
2018-02-03T11:47:57.163Z,18.01
2018-02-03T11:50:24.983Z,17.93
2018-02-03T11:52:52.654Z,18.04
2018-02-03T11:55:20.282Z,18.17
2018-02-03T11:57:47.938Z,18.24
2018-02-03T12:00:15.977Z,18.26
2018-02-03T12:02:43.632Z,18.20
2018-02-03T12:05:11.268Z,18.25
2018-02-03T12:07:38.957Z,18.33
2018-02-03T12:10:06.941Z,18.45
2018-02-03T12:12:34.559Z,18.47
2018-02-03T12:15:02.261Z,18.43
2018-02-03T12:17:30.071Z,18.41
2018-02-03T12:19:58.246Z,18.32
2018-02-03T12:22:25.815Z,18.23
2018-02-03T12:24:53.381Z,18.22
2018-02-03T12:27:21.198Z,18.10
2018-02-03T12:29:48.834Z,17.98
2018-02-03T12:32:16.681Z,17.93
2018-02-03T12:34:44.329Z,17.95
2018-02-03T12:37:12.035Z,17.88
2018-02-03T12:39:39.654Z,17.92
2018-02-03T12:42:08.105Z,17.90
2018-02-03T12:44:35.678Z,17.89
2018-02-03T12:47:03.485Z,17.89
2018-02-03T12:49:31.222Z,17.89
2018-02-03T12:51:58.843Z,17.81
2018-02-03T12:54:26.542Z,17.77
2018-02-03T12:56:54.242Z,17.81
2018-02-03T12:59:21.803Z,17.75
2018-02-03T13:01:49.373Z,17.77
2018-02-03T13:04:17.178Z,17.74
2018-02-03T13:06:44.757Z,17.71
2018-02-03T13:09:12.374Z,17.74
2018-02-03T13:11:40.044Z,17.74
2018-02-03T13:14:07.804Z,17.78
2018-02-03T13:16:36.724Z,17.79
2018-02-03T13:19:04.310Z,17.84
2018-02-03T13:21:31.965Z,17.93
2018-02-03T13:23:59.637Z,17.94
2018-02-03T13:26:27.229Z,17.85
2018-02-03T13:28:54.961Z,17.91
2018-02-03T13:31:23.596Z,17.93
2018-02-03T13:33:51.340Z,17.97
2018-02-03T13:36:19.081Z,18.02
2018-02-03T13:38:46.887Z,18.02
2018-02-03T13:41:14.495Z,18.01
2018-02-03T13:43:42.375Z,18.06
2018-02-03T13:46:10.090Z,18.11
2018-02-03T13:48:38.713Z,18.23
2018-02-03T13:51:06.758Z,18.17
2018-02-03T13:53:35.379Z,18.12
2018-02-03T13:56:03.061Z,18.03
2018-02-03T13:58:32.644Z,17.97
2018-02-03T14:01:00.277Z,17.97
2018-02-03T14:03:29.972Z,17.93
2018-02-03T14:05:57.538Z,17.88
2018-02-03T14:08:25.133Z,17.80
2018-02-03T14:10:53.569Z,17.76
2018-02-03T14:13:21.565Z,17.73
2018-02-03T14:15:49.203Z,17.69
2018-02-03T14:18:16.771Z,17.68
2018-02-03T14:20:44.465Z,17.76
2018-02-03T14:23:12.044Z,17.81
2018-02-03T14:25:39.728Z,17.83
2018-02-03T14:28:07.330Z,17.92
2018-02-03T14:30:34.944Z,17.90
2018-02-03T14:33:02.850Z,17.90
2018-02-03T14:35:31.749Z,17.98
2018-02-03T14:37:59.810Z,18.03
2018-02-03T14:40:28.530Z,17.92
2018-02-03T14:42:56.227Z,17.86
2018-02-03T14:45:24.188Z,17.80
2018-02-03T14:47:51.885Z,17.67
2018-02-03T14:50:19.698Z,17.57
2018-02-03T14:52:47.773Z,17.51
2018-02-03T14:55:16.093Z,17.36
2018-02-03T14:57:44.756Z,17.34
2018-02-03T15:00:20.292Z,17.24
2018-02-03T15:02:47.943Z,17.18
2018-02-03T15:05:15.607Z,17.18
2018-02-03T15:07:43.206Z,17.02
2018-02-03T15:10:10.782Z,16.95
2018-02-03T15:12:40.609Z,17.00
2018-02-03T15:15:09.560Z,17.04
2018-02-03T15:17:37.399Z,17.00
2018-02-03T15:20:05.079Z,16.92
2018-02-03T15:22:32.778Z,16.93
2018-02-03T15:25:00.770Z,16.94
2018-02-03T15:27:29.436Z,16.85
2018-02-03T15:32:33.295Z,16.79
2018-02-03T15:35:01.832Z,16.76
2018-02-03T15:37:29.394Z,16.79
2018-02-03T15:39:57.029Z,16.76
2018-02-03T15:42:24.594Z,16.76
2018-02-03T15:44:52.162Z,16.72
2018-02-03T15:47:19.798Z,16.66
2018-02-03T15:49:47.364Z,16.69
2018-02-03T15:52:15.976Z,16.71
2018-02-03T15:54:43.602Z,16.68
2018-02-03T15:57:11.231Z,16.63
2018-02-03T15:59:38.790Z,16.67
2018-02-03T16:02:06.362Z,16.68
2018-02-03T16:04:33.942Z,16.58
2018-02-03T16:07:01.506Z,16.66
2018-02-03T16:09:30.051Z,16.63
2018-02-03T16:11:57.618Z,16.67
2018-02-03T16:14:26.259Z,16.67
2018-02-03T16:16:53.859Z,16.61
2018-02-03T16:19:21.423Z,16.62
2018-02-03T16:21:49.047Z,16.66
2018-02-03T16:24:18.657Z,16.64
2018-02-03T16:26:46.278Z,16.73
2018-02-03T16:29:13.857Z,16.78
2018-02-03T16:31:41.491Z,16.82
2018-02-03T16:34:09.127Z,16.78
2018-02-03T16:36:36.751Z,16.75
2018-02-03T16:39:04.458Z,16.73
2018-02-03T16:41:32.064Z,16.77
2018-02-03T16:43:59.801Z,16.76
2018-02-03T16:46:27.417Z,16.78
2018-02-03T16:48:55.023Z,16.74
2018-02-03T16:51:22.670Z,16.76
2018-02-03T16:53:50.402Z,16.77
2018-02-03T16:56:18.165Z,16.83
2018-02-03T16:58:45.782Z,16.86
2018-02-03T17:01:13.434Z,16.85
2018-02-03T17:03:41.068Z,16.83
2018-02-03T17:06:08.697Z,16.84
2018-02-03T17:08:36.275Z,16.85
2018-02-03T17:11:03.837Z,16.88
2018-02-03T17:13:31.450Z,16.85
2018-02-03T17:15:59.011Z,16.87
2018-02-03T17:18:26.582Z,16.86
2018-02-03T17:20:54.410Z,16.87
2018-02-03T17:23:23.024Z,16.88
2018-02-03T17:25:50.646Z,16.88
2018-02-03T17:28:18.269Z,16.83
2018-02-03T17:30:45.887Z,16.88
2018-02-03T17:33:13.466Z,16.86
2018-02-03T17:35:41.087Z,16.81
2018-02-03T17:38:14.250Z,16.79
2018-02-03T17:40:41.831Z,16.77
2018-02-03T17:43:09.417Z,16.79
2018-02-03T17:45:43.004Z,16.79
2018-02-03T17:48:10.655Z,16.68
2018-02-03T17:50:38.263Z,16.62
2018-02-03T17:53:05.841Z,16.60
2018-02-03T17:55:39.047Z,16.65
2018-02-03T17:58:06.632Z,16.57
2018-02-03T18:00:34.275Z,16.56
2018-02-03T18:03:01.899Z,16.53
2018-02-03T18:05:29.464Z,16.49
2018-02-03T18:07:57.024Z,16.49
2018-02-03T18:10:24.691Z,16.48
2018-02-03T18:12:52.311Z,16.45
2018-02-03T18:15:19.889Z,16.50
2018-02-03T18:17:47.454Z,16.60
2018-02-03T18:20:15.132Z,16.60
2018-02-03T18:22:42.699Z,16.64
2018-02-03T18:25:10.331Z,16.66
2018-02-03T18:27:37.903Z,16.62
2018-02-03T18:30:05.545Z,16.58
2018-02-03T18:32:33.151Z,16.58
2018-02-03T18:35:00.794Z,16.49
2018-02-03T18:37:28.422Z,16.38
2018-02-03T18:39:56.092Z,16.40
2018-02-03T18:42:24.526Z,16.43
2018-02-03T18:44:52.103Z,16.43
2018-02-03T18:47:19.662Z,16.39
2018-02-03T18:52:40.146Z,16.42
2018-02-03T18:55:07.777Z,16.42
2018-02-03T18:57:35.352Z,16.30
2018-02-03T19:00:03.591Z,16.38
2018-02-03T19:02:31.176Z,16.32
2018-02-03T19:04:59.658Z,16.32
2018-02-03T19:07:27.230Z,16.26
2018-02-03T19:09:54.806Z,16.31
2018-02-03T19:12:22.382Z,16.28
2018-02-03T19:14:49.946Z,16.39
2018-02-03T19:17:17.553Z,16.41
2018-02-03T19:19:45.117Z,16.42
2018-02-03T19:22:12.706Z,16.48
2018-02-03T19:24:41.388Z,16.42
2018-02-03T19:27:08.962Z,16.48
2018-02-03T19:29:36.532Z,16.51
2018-02-03T19:32:04.093Z,16.45
2018-02-03T19:34:31.763Z,16.37
2018-02-03T19:36:59.381Z,16.27
2018-02-03T19:39:26.997Z,16.31
2018-02-03T19:41:54.663Z,16.29
2018-02-03T19:44:22.304Z,16.25
2018-02-03T19:46:49.937Z,16.30
2018-02-03T19:49:17.574Z,16.24
2018-02-03T19:51:45.198Z,16.22
2018-02-03T19:54:12.826Z,16.20
2018-02-03T19:56:40.484Z,16.20
2018-02-03T19:59:08.076Z,16.23
2018-02-03T20:01:35.760Z,16.18
2018-02-03T20:04:04.186Z,16.20
2018-02-03T20:06:31.840Z,16.17
2018-02-03T20:09:00.315Z,16.19
2018-02-03T20:11:27.896Z,16.13
2018-02-03T20:13:55.606Z,16.10
2018-02-03T20:16:25.132Z,16.08
2018-02-03T20:18:53.193Z,15.95
2018-02-03T20:21:20.914Z,15.89
2018-02-03T20:23:49.411Z,16.00
2018-02-03T20:26:17.993Z,15.97
2018-02-03T20:28:46.676Z,15.91
2018-02-03T20:31:15.477Z,15.88
2018-02-03T20:33:43.211Z,15.88
2018-02-03T20:36:10.795Z,15.82
2018-02-03T20:38:38.673Z,15.69
2018-02-03T20:41:07.333Z,15.72
2018-02-03T20:43:34.986Z,15.65
2018-02-03T20:46:02.561Z,15.59
2018-02-03T20:48:30.893Z,15.57
2018-02-03T20:50:58.530Z,15.63
2018-02-03T20:53:26.146Z,15.62
2018-02-03T20:55:53.759Z,15.56
2018-02-03T20:58:21.327Z,15.53
2018-02-03T21:00:48.940Z,15.50
2018-02-03T21:03:16.525Z,15.46
2018-02-03T21:05:44.723Z,15.42
2018-02-03T21:08:12.312Z,15.33
2018-02-03T21:10:39.935Z,15.25
2018-02-03T21:13:07.574Z,15.23
2018-02-03T21:15:35.138Z,15.24
2018-02-03T21:18:02.726Z,15.23
2018-02-03T21:20:30.290Z,15.17
2018-02-03T21:22:57.913Z,15.13
2018-02-03T21:25:25.486Z,15.15
2018-02-03T21:27:53.109Z,15.17
2018-02-03T21:30:20.707Z,15.10
2018-02-03T21:35:30.261Z,15.11
2018-02-03T21:37:57.903Z,15.16
2018-02-03T21:40:25.458Z,15.11
2018-02-03T21:42:53.026Z,15.13
2018-02-03T21:45:20.627Z,15.00
2018-02-03T21:47:48.234Z,14.89
2018-02-03T21:50:15.801Z,14.90
2018-02-03T21:52:43.421Z,14.85
2018-02-03T21:55:11.038Z,14.84
2018-02-03T21:57:38.600Z,14.80
2018-02-03T22:00:06.189Z,14.69
2018-02-03T22:02:33.754Z,14.59
2018-02-03T22:05:01.393Z,14.48
2018-02-03T22:07:28.962Z,14.46
2018-02-03T22:09:56.637Z,14.45
2018-02-03T22:12:24.246Z,14.41
2018-02-03T22:14:51.809Z,14.42
2018-02-03T22:17:19.440Z,14.39
2018-02-03T22:19:46.998Z,14.28
2018-02-03T22:22:14.573Z,14.09
2018-02-03T22:24:42.137Z,13.85
2018-02-03T22:27:09.761Z,13.62
2018-02-03T22:29:37.330Z,13.37
2018-02-03T22:32:04.906Z,13.21
2018-02-03T22:34:32.486Z,13.05
2018-02-03T22:37:00.122Z,12.89
2018-02-03T22:39:27.754Z,12.77
2018-02-03T22:41:55.326Z,12.72
2018-02-03T22:44:22.999Z,12.73
2018-02-03T22:46:50.567Z,12.60
2018-02-03T22:49:18.190Z,12.54
2018-02-03T22:51:45.785Z,12.44
2018-02-03T22:54:13.359Z,12.36
2018-02-03T22:56:41.001Z,12.26
2018-02-03T22:59:08.570Z,12.25
2018-02-03T23:01:36.198Z,12.23
2018-02-03T23:04:03.899Z,12.19
2018-02-03T23:06:31.531Z,12.16
2018-02-03T23:08:59.143Z,12.13
2018-02-03T23:11:26.723Z,12.09
2018-02-03T23:13:54.299Z,12.07
2018-02-03T23:16:21.874Z,12.06
2018-02-03T23:18:49.506Z,12.05
2018-02-03T23:21:17.107Z,11.99
2018-02-03T23:23:44.819Z,11.97
2018-02-03T23:26:12.422Z,11.89
2018-02-03T23:28:40.029Z,11.83
2018-02-03T23:31:07.599Z,11.71
2018-02-03T23:33:35.189Z,11.67
2018-02-03T23:36:02.758Z,11.60
2018-02-03T23:38:30.325Z,11.50
2018-02-03T23:40:57.898Z,11.46
2018-02-03T23:43:25.575Z,11.46
2018-02-03T23:45:53.162Z,11.42
2018-02-03T23:48:20.805Z,11.40
2018-02-03T23:50:48.386Z,11.38
2018-02-03T23:53:15.958Z,11.35
2018-02-03T23:55:43.574Z,11.40
2018-02-03T23:58:11.209Z,11.43
